createdAt,value
2019-05-15T00:00:08.881Z,10.80
2019-05-15T00:02:38.727Z,10.80
2019-05-15T00:05:09.127Z,10.70
2019-05-15T00:07:39.067Z,10.60
2019-05-15T00:10:08.845Z,10.60
2019-05-15T00:12:39.492Z,10.60
2019-05-15T00:15:09.270Z,10.60
2019-05-15T00:17:39.376Z,10.60
2019-05-15T00:20:10.501Z,10.60
2019-05-15T00:22:39.269Z,10.60
2019-05-15T00:25:09.337Z,10.60
2019-05-15T00:27:38.852Z,10.50
2019-05-15T00:30:11.816Z,10.50
2019-05-15T00:32:40.392Z,10.50
2019-05-15T00:35:09.712Z,10.50
2019-05-15T00:37:38.966Z,10.50
2019-05-15T00:40:08.923Z,10.50
2019-05-15T00:42:38.542Z,10.50
2019-05-15T00:45:09.633Z,10.40
2019-05-15T00:47:39.755Z,10.40
2019-05-15T00:50:10.781Z,10.40
2019-05-15T00:52:40.486Z,10.30
2019-05-15T00:55:11.242Z,10.30
2019-05-15T00:57:39.707Z,10.30
2019-05-15T01:00:09.114Z,10.20
2019-05-15T01:02:38.750Z,10.00
2019-05-15T01:05:08.632Z,9.90
2019-05-15T01:07:39.231Z,9.80
2019-05-15T01:10:09.923Z,9.70
2019-05-15T01:12:38.453Z,9.70
2019-05-15T01:15:10.056Z,9.80
2019-05-15T01:17:39.349Z,9.80
2019-05-15T01:20:08.874Z,9.80
2019-05-15T01:22:39.505Z,9.90
2019-05-15T01:25:08.991Z,9.90
2019-05-15T01:27:38.681Z,9.90
2019-05-15T01:30:09.203Z,9.90
2019-05-15T01:32:39.515Z,9.80
2019-05-15T01:35:09.588Z,9.80
2019-05-15T01:37:40.453Z,9.80
2019-05-15T01:40:10.340Z,9.80
2019-05-15T01:42:39.288Z,9.80
2019-05-15T01:45:08.863Z,9.80
2019-05-15T01:47:38.850Z,9.70
2019-05-15T01:50:09.386Z,9.70
2019-05-15T01:52:38.928Z,9.60
2019-05-15T01:55:09.290Z,9.40
2019-05-15T01:57:38.627Z,9.40
2019-05-15T02:00:10.015Z,9.30
2019-05-15T02:02:39.179Z,9.30
2019-05-15T02:05:10.506Z,9.30
2019-05-15T02:07:39.361Z,9.20
2019-05-15T02:10:09.297Z,9.20
2019-05-15T02:12:38.922Z,9.10
2019-05-15T02:15:09.393Z,9.10
2019-05-15T02:17:39.358Z,9.10
2019-05-15T02:20:10.223Z,9.10
2019-05-15T02:22:42.537Z,9.20
2019-05-15T02:25:09.523Z,9.20
2019-05-15T02:27:39.302Z,9.30
2019-05-15T02:30:22.125Z,9.20
2019-05-15T02:32:40.418Z,9.20
2019-05-15T02:35:10.195Z,9.10
2019-05-15T02:37:40.956Z,9.00
2019-05-15T02:40:10.546Z,9.00
2019-05-15T02:42:40.177Z,9.10
2019-05-15T02:45:10.082Z,9.10
2019-05-15T02:47:39.901Z,9.10
2019-05-15T02:50:11.099Z,8.90
2019-05-15T02:52:44.745Z,8.90
2019-05-15T02:55:10.893Z,8.90
2019-05-15T02:57:39.779Z,8.90
2019-05-15T03:00:10.963Z,8.90
2019-05-15T03:02:41.203Z,9.00
2019-05-15T03:05:10.224Z,8.90
2019-05-15T03:07:40.431Z,8.90
2019-05-15T03:10:09.956Z,8.90
2019-05-15T03:12:40.810Z,9.00
2019-05-15T03:15:09.927Z,8.90
2019-05-15T03:17:40.337Z,8.90
2019-05-15T03:20:11.966Z,9.00
2019-05-15T03:22:40.869Z,9.00
2019-05-15T03:25:11.054Z,9.00
2019-05-15T03:27:40.437Z,9.00
2019-05-15T03:30:13.468Z,8.90
2019-05-15T03:32:52.404Z,8.90
2019-05-15T03:35:15.263Z,8.90
2019-05-15T03:37:41.418Z,8.90
2019-05-15T03:40:10.926Z,8.90
2019-05-15T03:42:40.051Z,8.80
2019-05-15T03:45:10.352Z,8.70
2019-05-15T03:47:40.210Z,8.60
2019-05-15T03:50:10.553Z,8.50
2019-05-15T03:52:39.883Z,8.30
2019-05-15T03:55:10.676Z,8.30
2019-05-15T03:57:41.027Z,8.30
2019-05-15T04:00:10.300Z,8.20
2019-05-15T04:02:39.609Z,8.30
2019-05-15T04:05:11.826Z,8.30
2019-05-15T04:07:39.993Z,8.20
2019-05-15T04:10:10.625Z,8.20
2019-05-15T04:12:40.771Z,8.20
2019-05-15T04:15:10.773Z,8.30
2019-05-15T04:17:40.639Z,8.30
2019-05-15T04:20:10.365Z,8.30
2019-05-15T04:22:40.436Z,8.40
2019-05-15T04:25:10.308Z,8.50
2019-05-15T04:27:42.587Z,8.60
2019-05-15T04:30:11.336Z,8.80
2019-05-15T04:32:40.573Z,9.10
2019-05-15T04:35:09.853Z,9.20
2019-05-15T04:37:40.531Z,9.40
2019-05-15T04:40:10.876Z,9.60
2019-05-15T04:42:40.144Z,9.90
2019-05-15T04:45:10.798Z,10.00
2019-05-15T04:47:40.149Z,10.10
2019-05-15T04:50:09.630Z,10.30
2019-05-15T04:52:42.523Z,10.50
2019-05-15T04:55:10.509Z,10.60
2019-05-15T04:57:40.501Z,10.60
2019-05-15T05:00:10.784Z,10.60
2019-05-15T05:02:40.426Z,10.70
2019-05-15T05:05:10.499Z,10.70
2019-05-15T05:07:39.958Z,10.80
2019-05-15T05:10:09.914Z,11.00
2019-05-15T05:12:41.633Z,11.30
2019-05-15T05:15:09.450Z,11.60
2019-05-15T05:17:39.087Z,11.80
2019-05-15T05:20:08.397Z,11.90
2019-05-15T05:22:39.221Z,12.00
2019-05-15T05:25:08.285Z,12.10
2019-05-15T05:27:38.330Z,12.20
2019-05-15T05:30:08.749Z,12.30
2019-05-15T05:32:38.877Z,12.30
2019-05-15T05:35:08.736Z,12.40
2019-05-15T05:37:39.225Z,12.50
2019-05-15T05:40:08.607Z,12.40
2019-05-15T05:42:39.031Z,12.60
2019-05-15T05:45:09.555Z,12.70
2019-05-15T05:47:38.839Z,12.90
2019-05-15T05:50:08.533Z,13.00
2019-05-15T05:52:39.099Z,13.00
2019-05-15T05:55:08.775Z,13.20
2019-05-15T05:57:38.521Z,13.30
2019-05-15T06:00:09.291Z,13.30
2019-05-15T06:02:47.443Z,13.40
2019-05-15T06:05:08.425Z,13.30
2019-05-15T06:07:38.794Z,13.30
2019-05-15T06:10:08.864Z,13.40
2019-05-15T06:12:38.961Z,13.60
2019-05-15T06:15:09.185Z,13.70
2019-05-15T06:17:39.305Z,14.00
2019-05-15T06:20:08.469Z,14.20
2019-05-15T06:22:38.810Z,14.30
2019-05-15T06:25:11.185Z,14.30
2019-05-15T06:27:39.027Z,14.20
2019-05-15T06:30:18.372Z,14.30
2019-05-15T06:32:39.976Z,14.40
2019-05-15T06:35:10.765Z,14.40
2019-05-15T06:37:39.781Z,14.40
2019-05-15T06:40:08.836Z,14.60
2019-05-15T06:42:39.261Z,14.60
2019-05-15T06:45:08.290Z,14.70
2019-05-15T06:47:39.225Z,14.80
2019-05-15T06:50:08.584Z,14.90
2019-05-15T06:52:38.085Z,15.40
2019-05-15T06:55:09.352Z,15.80
2019-05-15T06:57:39.737Z,16.00
2019-05-15T07:00:09.687Z,16.30
2019-05-15T07:02:40.291Z,16.20
2019-05-15T07:05:08.873Z,16.30
2019-05-15T07:07:38.627Z,16.80
2019-05-15T07:10:08.946Z,17.30
2019-05-15T07:12:39.134Z,17.60
2019-05-15T07:15:09.440Z,17.70
2019-05-15T07:17:39.318Z,18.10
2019-05-15T07:20:10.578Z,18.50
2019-05-15T07:22:39.488Z,18.70
2019-05-15T07:25:09.357Z,18.80
2019-05-15T07:27:39.028Z,18.60
2019-05-15T07:30:11.653Z,18.80
2019-05-15T07:32:39.588Z,18.70
2019-05-15T07:35:09.453Z,19.00
2019-05-15T07:37:38.680Z,19.20
2019-05-15T07:40:10.656Z,19.30
2019-05-15T07:42:39.258Z,19.50
2019-05-15T07:45:10.331Z,19.30
2019-05-15T07:47:38.997Z,19.30
2019-05-15T07:50:12.768Z,19.60
2019-05-15T07:52:41.503Z,19.60
2019-05-15T07:55:11.273Z,19.60
2019-05-15T07:57:40.042Z,19.60
2019-05-15T08:00:18.526Z,19.40
2019-05-15T08:02:48.267Z,19.40
2019-05-15T08:05:18.243Z,19.40
2019-05-15T08:07:49.058Z,19.50
2019-05-15T08:10:18.483Z,19.70
2019-05-15T08:12:49.518Z,19.70
2019-05-15T08:15:20.107Z,19.90
2019-05-15T08:18:03.210Z,20.10
2019-05-15T08:20:19.858Z,20.30
2019-05-15T08:22:49.099Z,20.40
2019-05-15T08:25:30.454Z,20.50
2019-05-15T08:27:50.257Z,20.00
2019-05-15T08:30:19.074Z,19.70
2019-05-15T08:32:51.006Z,19.30
2019-05-15T08:35:19.217Z,18.90
2019-05-15T08:37:49.113Z,19.00
2019-05-15T08:40:18.238Z,18.80
2019-05-15T08:42:54.518Z,18.80
2019-05-15T08:45:18.919Z,19.10
2019-05-15T08:47:49.184Z,19.70
2019-05-15T08:50:18.377Z,19.60
2019-05-15T08:52:48.692Z,20.10
2019-05-15T08:55:20.033Z,20.10
2019-05-15T08:57:55.747Z,20.10
2019-05-15T09:00:18.899Z,20.30
2019-05-15T09:02:48.927Z,20.00
2019-05-15T09:05:18.938Z,19.90
2019-05-15T09:07:48.689Z,19.90
2019-05-15T09:10:18.506Z,19.60
2019-05-15T09:12:47.271Z,19.40
2019-05-15T09:15:18.490Z,19.00
2019-05-15T09:17:48.829Z,18.90
2019-05-15T09:20:19.493Z,19.00
2019-05-15T09:22:49.036Z,19.40
2019-05-15T09:25:19.328Z,19.20
2019-05-15T09:27:48.797Z,19.00
2019-05-15T09:30:18.420Z,19.30
2019-05-15T09:32:48.367Z,19.20
2019-05-15T09:35:19.183Z,18.60
2019-05-15T09:37:48.854Z,18.70
2019-05-15T09:40:18.877Z,18.60
2019-05-15T09:42:48.765Z,18.70
2019-05-15T09:45:19.015Z,18.70
2019-05-15T09:47:48.449Z,19.20
2019-05-15T09:50:19.407Z,19.40
2019-05-15T09:52:50.166Z,19.70
2019-05-15T09:55:19.900Z,19.70
2019-05-15T09:57:49.036Z,19.50
2019-05-15T10:00:18.939Z,19.00
2019-05-15T10:02:48.541Z,18.90
2019-05-15T10:05:18.767Z,19.10
2019-05-15T10:07:48.031Z,18.90
2019-05-15T10:10:19.060Z,18.80
2019-05-15T10:12:49.311Z,19.20
2019-05-15T10:15:18.556Z,19.40
2019-05-15T10:17:50.967Z,19.20
2019-05-15T10:20:19.655Z,19.20
2019-05-15T10:22:48.458Z,19.70
2019-05-15T10:25:19.028Z,19.80
2019-05-15T10:27:48.757Z,19.60
2019-05-15T10:30:18.876Z,19.20
2019-05-15T10:32:48.689Z,19.10
2019-05-15T10:35:25.556Z,19.30
2019-05-15T10:37:48.823Z,19.30
2019-05-15T10:40:20.464Z,19.20
2019-05-15T10:42:49.630Z,19.60
2019-05-15T10:45:19.409Z,20.00
2019-05-15T10:47:49.559Z,20.50
2019-05-15T10:50:19.356Z,20.60
2019-05-15T10:52:48.968Z,19.80
2019-05-15T10:55:18.889Z,19.70
2019-05-15T10:57:47.923Z,19.40
2019-05-15T11:00:19.516Z,19.60
2019-05-15T11:02:48.925Z,19.50
2019-05-15T11:05:18.965Z,20.00
2019-05-15T11:07:48.981Z,20.10
2019-05-15T11:10:18.601Z,20.00
2019-05-15T11:12:47.619Z,19.90
2019-05-15T11:15:18.469Z,20.00
2019-05-15T11:17:48.999Z,20.10
2019-05-15T11:20:18.740Z,20.10
2019-05-15T11:22:50.048Z,19.80
2019-05-15T11:25:17.690Z,19.80
2019-05-15T11:27:48.355Z,19.90
2019-05-15T11:30:19.241Z,20.00
2019-05-15T11:32:48.700Z,20.50
2019-05-15T11:35:18.669Z,20.90
2019-05-15T11:37:56.101Z,21.20
2019-05-15T11:40:19.027Z,21.00
2019-05-15T11:42:48.724Z,21.00
2019-05-15T11:45:18.735Z,21.10
2019-05-15T11:47:48.331Z,21.00
2019-05-15T11:50:20.370Z,21.20
2019-05-15T11:52:48.600Z,21.70
2019-05-15T11:55:17.536Z,22.00
2019-05-15T11:57:48.710Z,21.70
2019-05-15T12:00:25.695Z,21.50
2019-05-15T12:02:47.578Z,21.40
2019-05-15T12:05:18.224Z,21.00
2019-05-15T12:07:47.863Z,20.60
2019-05-15T12:10:18.501Z,20.80
2019-05-15T12:12:49.641Z,21.20
2019-05-15T12:15:19.132Z,21.50
2019-05-15T12:17:48.453Z,21.20
2019-05-15T12:20:19.289Z,20.90
2019-05-15T12:22:48.543Z,20.90
2019-05-15T12:25:17.540Z,21.00
2019-05-15T12:27:48.855Z,20.60
2019-05-15T12:30:19.866Z,20.40
2019-05-15T12:32:49.437Z,20.20
2019-05-15T12:35:20.391Z,20.10
2019-05-15T12:37:48.322Z,20.40
2019-05-15T13:00:20.048Z,20.60
2019-05-15T13:02:49.222Z,20.60
2019-05-15T13:05:19.246Z,21.10
2019-05-15T13:07:48.433Z,21.60
2019-05-15T13:10:18.399Z,21.70
2019-05-15T13:12:57.206Z,22.00
2019-05-15T13:15:18.953Z,21.80
2019-05-15T13:17:52.759Z,21.80
2019-05-15T13:20:18.598Z,22.00
2019-05-15T13:25:16.041Z,21.40
2019-05-15T13:27:48.627Z,20.90
2019-05-15T13:30:18.380Z,20.60
2019-05-15T13:32:49.656Z,20.40
2019-05-15T13:35:18.376Z,20.60
2019-05-15T13:37:49.334Z,20.70
2019-05-15T13:40:18.623Z,21.10
2019-05-15T13:42:48.566Z,21.10
2019-05-15T13:45:18.347Z,20.50
2019-05-15T13:47:46.942Z,20.40
2019-05-15T13:50:15.637Z,20.50
2019-05-15T13:52:44.100Z,20.70
2019-05-15T13:55:12.880Z,20.90
2019-05-15T13:57:41.408Z,20.90
2019-05-15T14:00:10.780Z,21.20
2019-05-15T14:02:39.707Z,21.40
2019-05-15T14:05:09.377Z,21.40
2019-05-15T14:07:48.888Z,21.10
2019-05-15T14:10:09.739Z,20.60
2019-05-15T14:12:40.296Z,20.30
2019-05-15T14:15:10.602Z,20.30
2019-05-15T14:17:39.072Z,20.40
2019-05-15T14:20:09.144Z,20.70
2019-05-15T14:22:39.083Z,20.80
2019-05-15T14:25:09.138Z,20.80
2019-05-15T14:27:40.250Z,20.30
2019-05-15T14:30:10.129Z,19.90
2019-05-15T14:32:39.530Z,19.90
2019-05-15T14:35:09.480Z,19.90
2019-05-15T14:37:38.159Z,19.90
2019-05-15T14:40:09.170Z,19.70
2019-05-15T14:42:39.669Z,19.60
2019-05-15T14:45:10.210Z,19.60
2019-05-15T14:47:39.921Z,19.60
2019-05-15T14:50:09.964Z,19.70
2019-05-15T14:52:38.945Z,19.80
2019-05-15T14:55:08.024Z,19.90
2019-05-15T14:57:39.130Z,19.70
2019-05-15T15:00:09.035Z,19.50
2019-05-15T15:02:39.058Z,19.70
2019-05-15T15:05:09.132Z,19.60
2019-05-15T15:07:39.126Z,19.60
2019-05-15T15:10:08.370Z,19.70
2019-05-15T15:12:39.543Z,19.50
2019-05-15T15:15:09.793Z,19.60
2019-05-15T15:17:38.863Z,19.70
2019-05-15T15:20:09.081Z,19.90
2019-05-15T15:22:39.488Z,19.90
2019-05-15T15:25:09.708Z,19.80
2019-05-15T15:27:39.271Z,19.80
2019-05-15T15:30:09.672Z,19.60
2019-05-15T15:38:13.574Z,19.40
2019-05-15T15:40:50.187Z,19.50
2019-05-15T15:43:18.927Z,19.10
2019-05-15T15:45:49.046Z,19.00
2019-05-15T15:48:19.271Z,19.00
2019-05-15T15:50:48.768Z,19.00
2019-05-15T15:53:19.099Z,18.80
2019-05-15T15:55:48.915Z,18.90
2019-05-15T15:58:20.049Z,19.00
2019-05-15T16:00:48.988Z,19.00
2019-05-15T16:03:19.406Z,18.90
2019-05-15T16:05:48.859Z,18.80
2019-05-15T16:08:19.066Z,18.80
2019-05-15T16:10:48.301Z,18.80
2019-05-15T16:13:18.642Z,18.80
2019-05-15T16:15:48.719Z,18.70
2019-05-15T16:18:18.290Z,18.70
2019-05-15T16:20:48.597Z,18.60
2019-05-15T16:23:18.829Z,18.60
2019-05-15T16:25:48.985Z,18.60
2019-05-15T16:28:18.597Z,18.40
2019-05-15T16:30:51.403Z,18.40
2019-05-15T16:33:18.623Z,18.30
2019-05-15T16:35:48.797Z,18.30
2019-05-15T16:38:19.223Z,18.30
2019-05-15T16:40:48.937Z,18.30
2019-05-15T16:43:19.425Z,18.30
2019-05-15T16:45:51.598Z,18.30
2019-05-15T16:48:18.664Z,18.30
2019-05-15T16:50:48.755Z,18.30
2019-05-15T16:53:18.376Z,18.40
2019-05-15T16:55:48.058Z,18.20
2019-05-15T16:58:19.126Z,18.10
2019-05-15T17:00:49.463Z,18.20
2019-05-15T17:03:18.466Z,18.10
2019-05-15T17:05:48.033Z,18.10
2019-05-15T17:08:17.891Z,18.10
2019-05-15T17:10:48.291Z,18.10
2019-05-15T17:13:17.241Z,18.00
2019-05-15T17:15:47.672Z,17.90
2019-05-15T17:18:18.030Z,17.80
2019-05-15T17:20:48.275Z,17.70
2019-05-15T17:23:18.717Z,17.70
2019-05-15T17:25:48.813Z,17.70
2019-05-15T17:28:18.501Z,17.70
2019-05-15T17:30:48.861Z,17.70
2019-05-15T17:33:18.484Z,17.70
2019-05-15T17:35:48.710Z,17.70
2019-05-15T17:38:18.252Z,17.60
2019-05-15T17:40:48.465Z,17.60
2019-05-15T17:43:18.347Z,17.50
2019-05-15T17:45:48.159Z,17.40
2019-05-15T17:48:19.336Z,17.30
2019-05-15T17:50:52.179Z,17.20
2019-05-15T17:53:18.183Z,17.10
2019-05-15T17:55:47.916Z,17.20
2019-05-15T17:58:16.704Z,17.20
2019-05-15T18:00:45.444Z,17.30
2019-05-15T18:03:13.986Z,17.30
2019-05-15T18:05:42.516Z,17.20
2019-05-15T18:08:11.046Z,17.10
2019-05-15T18:10:39.515Z,17.10
2019-05-15T18:13:08.941Z,17.00
2019-05-15T18:15:38.618Z,17.00
2019-05-15T18:18:09.477Z,16.90
2019-05-15T18:20:39.937Z,16.90
2019-05-15T18:23:08.708Z,16.70
2019-05-15T18:25:38.387Z,16.70
2019-05-15T18:28:08.475Z,16.50
2019-05-15T18:30:38.891Z,16.50
2019-05-15T18:33:08.626Z,16.30
2019-05-15T18:35:38.566Z,16.30
2019-05-15T18:38:08.574Z,16.30
2019-05-15T18:40:38.349Z,16.20
2019-05-15T18:43:09.793Z,16.20
2019-05-15T18:45:38.350Z,16.10
2019-05-15T18:48:07.059Z,16.10
2019-05-15T18:50:37.661Z,16.10
2019-05-15T18:53:08.713Z,16.20
2019-05-15T18:55:38.496Z,16.20
2019-05-15T18:58:08.338Z,16.20
2019-05-15T19:00:36.610Z,16.10
2019-05-15T19:03:18.273Z,16.10
2019-05-15T19:05:35.570Z,16.10
2019-05-15T19:08:04.017Z,16.10
2019-05-15T19:10:32.498Z,16.10
2019-05-15T19:13:00.965Z,16.10
2019-05-15T19:15:30.230Z,15.90
2019-05-15T19:17:59.131Z,15.90
2019-05-15T19:20:28.236Z,15.90
2019-05-15T19:22:58.912Z,15.90
2019-05-15T19:25:28.620Z,15.90
2019-05-15T19:27:57.732Z,15.80
2019-05-15T19:30:28.599Z,15.70
2019-05-15T19:32:58.540Z,15.80
2019-05-15T19:35:28.091Z,15.60
2019-05-15T19:37:58.630Z,15.60
2019-05-15T19:40:28.418Z,15.60
2019-05-15T19:42:58.986Z,15.60
2019-05-15T19:45:28.191Z,15.50
2019-05-15T19:47:58.694Z,15.50
2019-05-15T19:50:28.756Z,15.50
2019-05-15T19:52:59.108Z,15.40
2019-05-15T19:55:29.483Z,15.30
2019-05-15T19:57:58.963Z,15.30
2019-05-15T20:00:28.555Z,15.20
2019-05-15T20:02:58.230Z,15.20
2019-05-15T20:05:28.944Z,15.10
2019-05-15T20:08:00.437Z,15.00
2019-05-15T20:10:29.549Z,15.00
2019-05-15T20:12:59.650Z,15.00
2019-05-15T20:15:28.789Z,14.90
2019-05-15T20:17:58.293Z,14.70
2019-05-15T20:20:28.402Z,14.50
2019-05-15T20:23:00.148Z,14.40
2019-05-15T20:25:28.082Z,14.40
2019-05-15T20:27:56.674Z,14.40
2019-05-15T20:30:25.640Z,14.40
2019-05-15T20:32:54.238Z,14.40
2019-05-15T20:35:22.804Z,14.30
2019-05-15T20:37:51.738Z,14.20
2019-05-15T20:40:20.262Z,14.20
2019-05-15T20:42:48.989Z,14.10
2019-05-15T20:45:18.659Z,14.00
2019-05-15T20:47:47.392Z,13.90
2019-05-15T20:50:16.839Z,13.90
2019-05-15T20:52:48.683Z,13.70
2019-05-15T20:55:16.529Z,13.60
2019-05-15T20:57:47.663Z,13.60
2019-05-15T21:00:19.259Z,13.50
2019-05-15T21:02:49.557Z,13.60
2019-05-15T21:05:18.783Z,13.50
2019-05-15T21:07:48.702Z,13.60
2019-05-15T21:10:21.310Z,13.60
2019-05-15T21:12:49.658Z,13.60
2019-05-15T21:15:21.517Z,13.60
2019-05-15T21:17:57.745Z,13.50
2019-05-15T21:20:19.844Z,13.50
2019-05-15T21:22:49.324Z,13.40
2019-05-15T21:25:19.798Z,13.30
2019-05-15T21:27:48.969Z,13.20
2019-05-15T21:30:19.275Z,13.20
2019-05-15T21:32:49.475Z,13.20
2019-05-15T21:35:18.392Z,13.20
2019-05-15T21:37:50.326Z,13.30
2019-05-15T21:40:19.054Z,13.20
2019-05-15T21:42:49.352Z,13.10
2019-05-15T21:45:20.172Z,13.10
2019-05-15T21:47:50.734Z,13.00
2019-05-15T21:50:19.598Z,12.90
2019-05-15T21:52:49.396Z,12.90
2019-05-15T21:55:18.938Z,12.80
2019-05-15T21:57:47.932Z,12.70
2019-05-15T22:00:38.016Z,12.80
2019-05-15T22:03:06.627Z,12.70
2019-05-15T22:05:35.227Z,12.70
2019-05-15T22:08:03.981Z,12.70
2019-05-15T22:10:32.592Z,12.60
2019-05-15T22:13:01.199Z,12.60
2019-05-15T22:15:29.753Z,12.50
2019-05-15T22:17:58.425Z,12.50
2019-05-15T22:20:30.138Z,12.50
2019-05-15T22:22:59.590Z,12.50
2019-05-15T22:25:27.984Z,12.50
2019-05-15T22:27:57.878Z,12.40
2019-05-15T22:30:29.929Z,12.30
2019-05-15T22:32:58.695Z,12.10
2019-05-15T22:35:29.507Z,12.10
2019-05-15T22:37:58.400Z,12.10
2019-05-15T22:40:28.953Z,12.20
2019-05-15T22:42:59.148Z,12.10
2019-05-15T22:45:29.927Z,12.10
2019-05-15T22:47:58.824Z,12.00
2019-05-15T22:50:28.075Z,11.90
2019-05-15T22:52:58.746Z,11.80
2019-05-15T22:55:28.988Z,11.70
2019-05-15T22:58:00.187Z,11.70
2019-05-15T23:00:29.250Z,11.60
2019-05-15T23:02:58.318Z,11.60
2019-05-15T23:05:31.021Z,11.60
2019-05-15T23:07:58.897Z,11.70
2019-05-15T23:10:29.189Z,11.70
2019-05-15T23:12:58.259Z,11.60
2019-05-15T23:15:28.133Z,11.50
2019-05-15T23:17:58.238Z,11.40
2019-05-15T23:20:28.637Z,11.40
2019-05-15T23:22:58.423Z,11.50
2019-05-15T23:25:28.949Z,11.50
2019-05-15T23:27:58.410Z,11.60
2019-05-15T23:30:28.899Z,11.70
2019-05-15T23:32:58.252Z,11.70
2019-05-15T23:35:35.459Z,11.70
2019-05-15T23:37:58.074Z,11.70
2019-05-15T23:40:28.787Z,11.70
2019-05-15T23:42:57.088Z,11.80
2019-05-15T23:45:28.884Z,11.70
2019-05-15T23:47:58.044Z,11.70
2019-05-15T23:50:28.901Z,11.70
2019-05-15T23:52:58.373Z,11.60
2019-05-15T23:55:28.607Z,11.60
2019-05-15T23:57:58.445Z,11.60
